sensor_id;sensor_type;location;lat;lon;timestamp;temperature;humidity
1083;DHT22;530;51.448;7.238;2022-10-16T00:01:11;14.70;99.90
1083;DHT22;530;51.448;7.238;2022-10-16T00:03:38;14.60;99.90
1083;DHT22;530;51.448;7.238;2022-10-16T00:06:04;14.60;99.90
1083;DHT22;530;51.448;7.238;2022-10-16T00:08:31;14.60;99.90
1083;DHT22;530;51.448;7.238;2022-10-16T00:11:02;14.60;99.90
1083;DHT22;530;51.448;7.238;2022-10-16T00:13:29;14.60;99.90
1083;DHT22;530;51.448;7.238;2022-10-16T00:15:56;14.60;99.90
1083;DHT22;530;51.448;7.238;2022-10-16T00:18:21;14.50;99.90
1083;DHT22;530;51.448;7.238;2022-10-16T00:20:47;14.50;99.90
1083;DHT22;530;51.448;7.238;2022-10-16T00:23:13;14.50;99.90
1083;DHT22;530;51.448;7.238;2022-10-16T00:25:38;14.50;99.90
1083;DHT22;530;51.448;7.238;2022-10-16T00:28:04;14.50;99.90
1083;DHT22;530;51.448;7.238;2022-10-16T00:30:29;14.40;99.90
1083;DHT22;530;51.448;7.238;2022-10-16T00:32:55;14.40;99.90
1083;DHT22;530;51.448;7.238;2022-10-16T00:35:21;14.40;99.90
1083;DHT22;530;51.448;7.238;2022-10-16T00:37:47;14.40;99.90
1083;DHT22;530;51.448;7.238;2022-10-16T00:40:12;14.40;99.90
1083;DHT22;530;51.448;7.238;2022-10-16T00:42:38;14.50;99.90
1083;DHT22;530;51.448;7.238;2022-10-16T00:45:04;14.50;99.90
1083;DHT22;530;51.448;7.238;2022-10-16T00:47:42;14.50;99.90
1083;DHT22;530;51.448;7.238;2022-10-16T00:52:37;14.60;99.90
1083;DHT22;530;51.448;7.238;2022-10-16T00:55:06;14.70;99.90
1083;DHT22;530;51.448;7.238;2022-10-16T00:57:32;14.70;99.90
1083;DHT22;530;51.448;7.238;2022-10-16T00:59:57;14.70;99.90
1083;DHT22;530;51.448;7.238;2022-10-16T01:02:24;14.60;99.90
1083;DHT22;530;51.448;7.238;2022-10-16T01:04:51;14.60;99.90
1083;DHT22;530;51.448;7.238;2022-10-16T01:13:06;14.60;99.90
1083;DHT22;530;51.448;7.238;2022-10-16T01:15:49;14.70;99.90
1083;DHT22;530;51.448;7.238;2022-10-16T01:18:35;14.70;99.90
1083;DHT22;530;51.448;7.238;2022-10-16T01:21:06;14.70;99.90
1083;DHT22;530;51.448;7.238;2022-10-16T01:24:06;14.70;99.90
1083;DHT22;530;51.448;7.238;2022-10-16T01:35:04;14.50;99.90
1083;DHT22;530;51.448;7.238;2022-10-16T01:37:56;14.50;99.90
1083;DHT22;530;51.448;7.238;2022-10-16T01:40:26;14.50;99.90
1083;DHT22;530;51.448;7.238;2022-10-16T01:42:56;14.50;99.90
1083;DHT22;530;51.448;7.238;2022-10-16T01:45:22;14.50;99.90
1083;DHT22;530;51.448;7.238;2022-10-16T01:47:49;14.50;99.90
1083;DHT22;530;51.448;7.238;2022-10-16T01:50:18;14.60;99.90
1083;DHT22;530;51.448;7.238;2022-10-16T01:52:47;14.50;99.90
1083;DHT22;530;51.448;7.238;2022-10-16T01:55:25;14.50;99.90
1083;DHT22;530;51.448;7.238;2022-10-16T01:57:55;14.50;99.90
1083;DHT22;530;51.448;7.238;2022-10-16T02:00:22;14.60;99.90
1083;DHT22;530;51.448;7.238;2022-10-16T02:02:52;14.60;99.90
1083;DHT22;530;51.448;7.238;2022-10-16T02:05:42;14.60;99.90
1083;DHT22;530;51.448;7.238;2022-10-16T02:08:10;14.60;99.90
1083;DHT22;530;51.448;7.238;2022-10-16T02:10:36;14.60;99.90
1083;DHT22;530;51.448;7.238;2022-10-16T02:13:10;14.60;99.90
1083;DHT22;530;51.448;7.238;2022-10-16T02:15:37;14.60;99.90
1083;DHT22;530;51.448;7.238;2022-10-16T02:18:04;14.60;99.90
1083;DHT22;530;51.448;7.238;2022-10-16T02:20:34;14.60;99.90
1083;DHT22;530;51.448;7.238;2022-10-16T02:23:01;14.70;99.90
1083;DHT22;530;51.448;7.238;2022-10-16T02:25:35;14.70;99.90
1083;DHT22;530;51.448;7.238;2022-10-16T02:28:10;14.70;99.90
1083;DHT22;530;51.448;7.238;2022-10-16T02:31:00;14.60;99.90
1083;DHT22;530;51.448;7.238;2022-10-16T02:33:29;14.60;99.90
1083;DHT22;530;51.448;7.238;2022-10-16T02:35:57;14.60;99.90
1083;DHT22;530;51.448;7.238;2022-10-16T02:38:23;14.50;99.90
1083;DHT22;530;51.448;7.238;2022-10-16T02:40:50;14.50;99.90
1083;DHT22;530;51.448;7.238;2022-10-16T02:43:16;14.50;99.90
1083;DHT22;530;51.448;7.238;2022-10-16T02:45:42;14.40;99.90
1083;DHT22;530;51.448;7.238;2022-10-16T02:48:08;14.50;99.90
1083;DHT22;530;51.448;7.238;2022-10-16T02:50:34;14.40;99.90
1083;DHT22;530;51.448;7.238;2022-10-16T02:52:59;14.50;99.90
1083;DHT22;530;51.448;7.238;2022-10-16T02:55:25;14.50;99.90
1083;DHT22;530;51.448;7.238;2022-10-16T02:57:53;14.40;99.90
1083;DHT22;530;51.448;7.238;2022-10-16T03:00:19;14.50;99.90
1083;DHT22;530;51.448;7.238;2022-10-16T03:02:45;14.40;99.90
1083;DHT22;530;51.448;7.238;2022-10-16T03:05:10;14.50;99.90
1083;DHT22;530;51.448;7.238;2022-10-16T03:07:36;14.50;99.90
1083;DHT22;530;51.448;7.238;2022-10-16T03:10:02;14.50;99.90
1083;DHT22;530;51.448;7.238;2022-10-16T03:12:28;14.50;99.90
1083;DHT22;530;51.448;7.238;2022-10-16T03:14:55;14.50;99.90
1083;DHT22;530;51.448;7.238;2022-10-16T03:17:22;14.50;99.90
1083;DHT22;530;51.448;7.238;2022-10-16T03:19:48;14.60;99.90
1083;DHT22;530;51.448;7.238;2022-10-16T03:22:14;14.60;99.90
1083;DHT22;530;51.448;7.238;2022-10-16T03:24:39;14.60;99.90
1083;DHT22;530;51.448;7.238;2022-10-16T03:27:05;14.70;99.90
1083;DHT22;530;51.448;7.238;2022-10-16T03:29:31;14.60;99.90
1083;DHT22;530;51.448;7.238;2022-10-16T03:31:58;14.70;99.90
1083;DHT22;530;51.448;7.238;2022-10-16T03:34:24;14.60;99.90
1083;DHT22;530;51.448;7.238;2022-10-16T03:36:50;14.60;99.90
1083;DHT22;530;51.448;7.238;2022-10-16T03:39:15;14.50;99.90
1083;DHT22;530;51.448;7.238;2022-10-16T03:41:41;14.50;99.90
1083;DHT22;530;51.448;7.238;2022-10-16T03:44:07;14.50;99.90
1083;DHT22;530;51.448;7.238;2022-10-16T03:46:32;14.50;99.90
1083;DHT22;530;51.448;7.238;2022-10-16T03:48:58;14.50;99.90
1083;DHT22;530;51.448;7.238;2022-10-16T03:51:23;14.50;99.90
1083;DHT22;530;51.448;7.238;2022-10-16T03:53:49;14.60;99.90
1083;DHT22;530;51.448;7.238;2022-10-16T03:56:15;14.70;99.90
1083;DHT22;530;51.448;7.238;2022-10-16T03:58:41;14.70;99.90
1083;DHT22;530;51.448;7.238;2022-10-16T04:01:06;14.60;99.90
1083;DHT22;530;51.448;7.238;2022-10-16T04:03:32;14.60;99.90
1083;DHT22;530;51.448;7.238;2022-10-16T04:05:58;14.60;99.90
1083;DHT22;530;51.448;7.238;2022-10-16T04:08:24;14.60;99.90
1083;DHT22;530;51.448;7.238;2022-10-16T04:10:50;14.60;99.90
1083;DHT22;530;51.448;7.238;2022-10-16T04:13:16;14.60;99.90
1083;DHT22;530;51.448;7.238;2022-10-16T04:15:41;14.60;99.90
1083;DHT22;530;51.448;7.238;2022-10-16T04:18:07;14.60;99.90
1083;DHT22;530;51.448;7.238;2022-10-16T04:20:33;14.60;99.90
1083;DHT22;530;51.448;7.238;2022-10-16T04:22:59;14.50;99.90
1083;DHT22;530;51.448;7.238;2022-10-16T04:25:25;14.50;99.90
1083;DHT22;530;51.448;7.238;2022-10-16T04:27:53;14.50;99.90
1083;DHT22;530;51.448;7.238;2022-10-16T04:30:19;14.40;99.90
1083;DHT22;530;51.448;7.238;2022-10-16T04:32:48;14.40;99.90
1083;DHT22;530;51.448;7.238;2022-10-16T04:35:14;14.40;99.90
1083;DHT22;530;51.448;7.238;2022-10-16T04:37:40;14.30;99.90
1083;DHT22;530;51.448;7.238;2022-10-16T04:40:06;14.30;99.90
1083;DHT22;530;51.448;7.238;2022-10-16T04:42:32;14.30;99.90
1083;DHT22;530;51.448;7.238;2022-10-16T04:44:57;14.20;99.90
1083;DHT22;530;51.448;7.238;2022-10-16T04:47:23;14.20;99.90
1083;DHT22;530;51.448;7.238;2022-10-16T04:49:48;14.30;99.90
1083;DHT22;530;51.448;7.238;2022-10-16T04:52:14;14.30;99.90
1083;DHT22;530;51.448;7.238;2022-10-16T04:54:40;14.40;99.90
1083;DHT22;530;51.448;7.238;2022-10-16T04:57:06;14.40;99.90
1083;DHT22;530;51.448;7.238;2022-10-16T04:59:31;14.40;99.90
1083;DHT22;530;51.448;7.238;2022-10-16T05:01:57;14.40;99.90
1083;DHT22;530;51.448;7.238;2022-10-16T05:04:23;14.30;99.90
1083;DHT22;530;51.448;7.238;2022-10-16T05:06:49;14.30;99.90
1083;DHT22;530;51.448;7.238;2022-10-16T05:09:15;14.30;99.90
1083;DHT22;530;51.448;7.238;2022-10-16T05:11:40;14.30;99.90
1083;DHT22;530;51.448;7.238;2022-10-16T05:14:06;14.30;99.90
1083;DHT22;530;51.448;7.238;2022-10-16T05:16:31;14.30;99.90
1083;DHT22;530;51.448;7.238;2022-10-16T05:18:57;14.30;99.90
1083;DHT22;530;51.448;7.238;2022-10-16T05:21:23;14.20;99.90
1083;DHT22;530;51.448;7.238;2022-10-16T05:23:48;14.30;99.90
1083;DHT22;530;51.448;7.238;2022-10-16T05:26:14;14.20;99.90
1083;DHT22;530;51.448;7.238;2022-10-16T05:28:40;14.30;99.90
1083;DHT22;530;51.448;7.238;2022-10-16T05:31:07;14.30;99.90
1083;DHT22;530;51.448;7.238;2022-10-16T05:33:33;14.40;99.90
1083;DHT22;530;51.448;7.238;2022-10-16T05:36:06;14.30;99.90
1083;DHT22;530;51.448;7.238;2022-10-16T05:38:33;14.30;99.90
1083;DHT22;530;51.448;7.238;2022-10-16T05:40:59;14.40;99.90
1083;DHT22;530;51.448;7.238;2022-10-16T05:43:27;14.40;99.90
1083;DHT22;530;51.448;7.238;2022-10-16T05:46:04;14.40;99.90
1083;DHT22;530;51.448;7.238;2022-10-16T05:48:30;14.40;99.90
1083;DHT22;530;51.448;7.238;2022-10-16T05:51:01;14.40;99.90
1083;DHT22;530;51.448;7.238;2022-10-16T05:53:28;14.40;99.90
1083;DHT22;530;51.448;7.238;2022-10-16T05:55:55;14.40;99.90
1083;DHT22;530;51.448;7.238;2022-10-16T05:58:21;14.40;99.90
1083;DHT22;530;51.448;7.238;2022-10-16T06:01:05;14.40;99.90
1083;DHT22;530;51.448;7.238;2022-10-16T06:03:32;14.40;99.90
1083;DHT22;530;51.448;7.238;2022-10-16T06:05:58;14.40;99.90
1083;DHT22;530;51.448;7.238;2022-10-16T06:08:24;14.40;99.90
1083;DHT22;530;51.448;7.238;2022-10-16T06:11:01;14.40;99.90
1083;DHT22;530;51.448;7.238;2022-10-16T06:13:27;14.40;99.90
1083;DHT22;530;51.448;7.238;2022-10-16T06:15:53;14.40;99.90
1083;DHT22;530;51.448;7.238;2022-10-16T06:18:18;14.40;99.90
1083;DHT22;530;51.448;7.238;2022-10-16T06:20:44;14.40;99.90
1083;DHT22;530;51.448;7.238;2022-10-16T06:23:09;14.40;99.90
1083;DHT22;530;51.448;7.238;2022-10-16T06:25:35;14.50;99.90
1083;DHT22;530;51.448;7.238;2022-10-16T06:28:00;14.50;99.90
1083;DHT22;530;51.448;7.238;2022-10-16T06:30:26;14.50;99.90
1083;DHT22;530;51.448;7.238;2022-10-16T06:32:52;14.50;99.90
1083;DHT22;530;51.448;7.238;2022-10-16T06:35:17;14.50;99.90
1083;DHT22;530;51.448;7.238;2022-10-16T06:37:43;14.50;99.90
1083;DHT22;530;51.448;7.238;2022-10-16T06:40:08;14.50;99.90
1083;DHT22;530;51.448;7.238;2022-10-16T06:42:34;14.50;99.90
1083;DHT22;530;51.448;7.238;2022-10-16T06:45:00;14.50;99.90
1083;DHT22;530;51.448;7.238;2022-10-16T06:47:27;14.50;99.90
1083;DHT22;530;51.448;7.238;2022-10-16T06:49:52;14.60;99.90
1083;DHT22;530;51.448;7.238;2022-10-16T06:52:18;14.60;99.90
1083;DHT22;530;51.448;7.238;2022-10-16T06:54:44;14.70;99.90
1083;DHT22;530;51.448;7.238;2022-10-16T06:57:09;14.70;99.90
1083;DHT22;530;51.448;7.238;2022-10-16T06:59:35;14.70;99.90
1083;DHT22;530;51.448;7.238;2022-10-16T07:02:00;14.70;99.90
1083;DHT22;530;51.448;7.238;2022-10-16T07:04:26;14.70;99.90
1083;DHT22;530;51.448;7.238;2022-10-16T07:06:52;14.70;99.90
1083;DHT22;530;51.448;7.238;2022-10-16T07:09:17;14.60;99.90
1083;DHT22;530;51.448;7.238;2022-10-16T07:11:43;14.70;99.90
1083;DHT22;530;51.448;7.238;2022-10-16T07:14:17;14.70;99.90
1083;DHT22;530;51.448;7.238;2022-10-16T07:16:43;14.80;99.90
1083;DHT22;530;51.448;7.238;2022-10-16T07:19:09;14.80;99.90
1083;DHT22;530;51.448;7.238;2022-10-16T07:21:37;14.90;99.90
1083;DHT22;530;51.448;7.238;2022-10-16T07:24:04;15.00;99.90
1083;DHT22;530;51.448;7.238;2022-10-16T07:26:33;15.00;99.90
1083;DHT22;530;51.448;7.238;2022-10-16T07:28:59;15.00;99.90
1083;DHT22;530;51.448;7.238;2022-10-16T07:31:26;15.00;99.90
1083;DHT22;530;51.448;7.238;2022-10-16T07:33:52;15.00;99.90
1083;DHT22;530;51.448;7.238;2022-10-16T07:36:19;15.00;99.90
1083;DHT22;530;51.448;7.238;2022-10-16T07:38:46;14.90;99.90
1083;DHT22;530;51.448;7.238;2022-10-16T07:41:17;14.90;99.90
1083;DHT22;530;51.448;7.238;2022-10-16T07:43:50;14.90;99.90
1083;DHT22;530;51.448;7.238;2022-10-16T07:46:17;14.90;99.90
1083;DHT22;530;51.448;7.238;2022-10-16T07:48:43;15.00;99.90
1083;DHT22;530;51.448;7.238;2022-10-16T07:51:17;15.40;99.90
1083;DHT22;530;51.448;7.238;2022-10-16T07:53:43;15.70;99.90
1083;DHT22;530;51.448;7.238;2022-10-16T07:56:09;16.10;99.90
1083;DHT22;530;51.448;7.238;2022-10-16T07:58:36;16.30;99.90
1083;DHT22;530;51.448;7.238;2022-10-16T08:01:06;16.60;99.90
1083;DHT22;530;51.448;7.238;2022-10-16T08:03:32;16.80;99.90
1083;DHT22;530;51.448;7.238;2022-10-16T08:05:59;17.20;99.90
1083;DHT22;530;51.448;7.238;2022-10-16T08:08:24;17.40;99.90
1083;DHT22;530;51.448;7.238;2022-10-16T08:10:50;17.70;99.90
1083;DHT22;530;51.448;7.238;2022-10-16T08:13:16;18.00;99.90
1083;DHT22;530;51.448;7.238;2022-10-16T08:15:42;18.20;99.90
1083;DHT22;530;51.448;7.238;2022-10-16T08:18:09;18.40;99.90
1083;DHT22;530;51.448;7.238;2022-10-16T08:20:35;18.60;99.90
1083;DHT22;530;51.448;7.238;2022-10-16T08:23:01;18.80;99.90
1083;DHT22;530;51.448;7.238;2022-10-16T08:25:27;19.00;99.90
1083;DHT22;530;51.448;7.238;2022-10-16T08:27:53;19.10;99.90
1083;DHT22;530;51.448;7.238;2022-10-16T08:30:20;19.30;99.90
1083;DHT22;530;51.448;7.238;2022-10-16T08:32:46;19.20;99.90
1083;DHT22;530;51.448;7.238;2022-10-16T08:35:12;19.20;99.90
1083;DHT22;530;51.448;7.238;2022-10-16T08:37:38;19.20;99.90
1083;DHT22;530;51.448;7.238;2022-10-16T08:40:06;19.20;99.90
1083;DHT22;530;51.448;7.238;2022-10-16T08:50:27;19.60;99.90
1083;DHT22;530;51.448;7.238;2022-10-16T08:52:54;19.70;99.90
1083;DHT22;530;51.448;7.238;2022-10-16T08:57:52;19.90;99.90
1083;DHT22;530;51.448;7.238;2022-10-16T09:00:18;19.90;99.90
1083;DHT22;530;51.448;7.238;2022-10-16T09:16:21;20.30;99.90
1083;DHT22;530;51.448;7.238;2022-10-16T09:19:04;20.30;99.90
1083;DHT22;530;51.448;7.238;2022-10-16T09:21:38;20.10;99.90
1083;DHT22;530;51.448;7.238;2022-10-16T09:24:16;20.10;99.90
1083;DHT22;530;51.448;7.238;2022-10-16T09:26:42;20.30;99.90
1083;DHT22;530;51.448;7.238;2022-10-16T09:29:16;20.40;99.90
1083;DHT22;530;51.448;7.238;2022-10-16T09:31:42;20.40;99.90
1083;DHT22;530;51.448;7.238;2022-10-16T09:34:32;20.50;99.90
1083;DHT22;530;51.448;7.238;2022-10-16T09:37:05;20.60;99.90
1083;DHT22;530;51.448;7.238;2022-10-16T09:39:51;20.60;99.90
1083;DHT22;530;51.448;7.238;2022-10-16T09:42:31;20.40;99.90
1083;DHT22;530;51.448;7.238;2022-10-16T09:44:58;20.40;99.90
1083;DHT22;530;51.448;7.238;2022-10-16T09:47:26;20.30;99.90
1083;DHT22;530;51.448;7.238;2022-10-16T09:49:57;20.20;99.90
1083;DHT22;530;51.448;7.238;2022-10-16T09:52:25;20.00;99.90
1083;DHT22;530;51.448;7.238;2022-10-16T09:55:00;19.90;99.90
1083;DHT22;530;51.448;7.238;2022-10-16T09:57:26;19.80;99.90
1083;DHT22;530;51.448;7.238;2022-10-16T09:59:54;19.90;99.90
1083;DHT22;530;51.448;7.238;2022-10-16T10:02:33;19.90;99.90
1083;DHT22;530;51.448;7.238;2022-10-16T10:05:00;19.80;99.90
1083;DHT22;530;51.448;7.238;2022-10-16T10:07:29;19.70;99.90
1083;DHT22;530;51.448;7.238;2022-10-16T10:09:59;19.70;99.90
1083;DHT22;530;51.448;7.238;2022-10-16T10:12:29;19.60;99.90
1083;DHT22;530;51.448;7.238;2022-10-16T10:15:07;19.60;99.90
1083;DHT22;530;51.448;7.238;2022-10-16T10:17:52;19.60;99.90
1083;DHT22;530;51.448;7.238;2022-10-16T10:20:31;19.60;99.90
1083;DHT22;530;51.448;7.238;2022-10-16T10:23:01;19.70;99.90
1083;DHT22;530;51.448;7.238;2022-10-16T10:25:45;19.70;99.90
1083;DHT22;530;51.448;7.238;2022-10-16T10:31:20;19.70;99.90
1083;DHT22;530;51.448;7.238;2022-10-16T10:34:56;19.80;99.90
1083;DHT22;530;51.448;7.238;2022-10-16T10:37:04;19.80;99.90
1083;DHT22;530;51.448;7.238;2022-10-16T10:39:41;19.70;99.90
1083;DHT22;530;51.448;7.238;2022-10-16T10:42:22;19.70;99.90
1083;DHT22;530;51.448;7.238;2022-10-16T10:50:33;19.60;99.90
1083;DHT22;530;51.448;7.238;2022-10-16T11:01:21;19.30;99.90
1083;DHT22;530;51.448;7.238;2022-10-16T11:17:19;19.40;99.90
1083;DHT22;530;51.448;7.238;2022-10-16T11:19:51;19.60;99.90
1083;DHT22;530;51.448;7.238;2022-10-16T11:22:53;19.70;99.90
1083;DHT22;530;51.448;7.238;2022-10-16T11:25:31;19.80;99.90
1083;DHT22;530;51.448;7.238;2022-10-16T11:30:59;20.00;99.90
1083;DHT22;530;51.448;7.238;2022-10-16T11:36:19;19.90;99.90
1083;DHT22;530;51.448;7.238;2022-10-16T11:41:37;19.80;99.90
1083;DHT22;530;51.448;7.238;2022-10-16T11:46:40;20.00;99.90
1083;DHT22;530;51.448;7.238;2022-10-16T11:49:16;20.00;99.90
1083;DHT22;530;51.448;7.238;2022-10-16T11:51:51;20.10;99.90
1083;DHT22;530;51.448;7.238;2022-10-16T11:54:35;20.30;99.90
1083;DHT22;530;51.448;7.238;2022-10-16T11:57:12;20.40;99.90
1083;DHT22;530;51.448;7.238;2022-10-16T12:05:35;20.70;99.90
1083;DHT22;530;51.448;7.238;2022-10-16T12:08:10;20.80;99.90
1083;DHT22;530;51.448;7.238;2022-10-16T12:10:38;20.70;99.90
1083;DHT22;530;51.448;7.238;2022-10-16T12:13:26;20.70;99.90
1083;DHT22;530;51.448;7.238;2022-10-16T12:15:51;20.80;99.90
1083;DHT22;530;51.448;7.238;2022-10-16T12:18:23;20.80;99.90
1083;DHT22;530;51.448;7.238;2022-10-16T12:20:57;20.70;99.90
1083;DHT22;530;51.448;7.238;2022-10-16T12:23:31;20.80;99.90
1083;DHT22;530;51.448;7.238;2022-10-16T12:26:01;20.70;99.90
1083;DHT22;530;51.448;7.238;2022-10-16T12:28:30;20.70;99.90
1083;DHT22;530;51.448;7.238;2022-10-16T12:31:05;20.60;99.90
1083;DHT22;530;51.448;7.238;2022-10-16T12:33:36;20.40;99.90
1083;DHT22;530;51.448;7.238;2022-10-16T12:36:15;20.40;99.90
1083;DHT22;530;51.448;7.238;2022-10-16T12:38:50;20.40;99.90
1083;DHT22;530;51.448;7.238;2022-10-16T12:41:31;20.50;99.90
1083;DHT22;530;51.448;7.238;2022-10-16T12:43:57;20.50;99.90
1083;DHT22;530;51.448;7.238;2022-10-16T12:46:35;20.50;99.90
1083;DHT22;530;51.448;7.238;2022-10-16T12:51:42;20.40;99.90
1083;DHT22;530;51.448;7.238;2022-10-16T13:03:03;20.20;99.90
1083;DHT22;530;51.448;7.238;2022-10-16T13:11:22;20.00;99.90
1083;DHT22;530;51.448;7.238;2022-10-16T13:22:08;20.10;99.90
1083;DHT22;530;51.448;7.238;2022-10-16T13:30:07;19.90;99.90
1083;DHT22;530;51.448;7.238;2022-10-16T13:32:33;19.90;99.90
1083;DHT22;530;51.448;7.238;2022-10-16T13:34:59;19.90;99.90
1083;DHT22;530;51.448;7.238;2022-10-16T13:37:26;20.00;99.90
1083;DHT22;530;51.448;7.238;2022-10-16T13:40:23;19.90;99.90
1083;DHT22;530;51.448;7.238;2022-10-16T13:42:50;19.90;99.90
1083;DHT22;530;51.448;7.238;2022-10-16T13:45:24;19.80;99.90
1083;DHT22;530;51.448;7.238;2022-10-16T13:48:06;19.80;99.90
1083;DHT22;530;51.448;7.238;2022-10-16T13:50:34;19.70;99.90
1083;DHT22;530;51.448;7.238;2022-10-16T13:53:07;19.70;99.90
1083;DHT22;530;51.448;7.238;2022-10-16T13:55:37;19.70;99.90
1083;DHT22;530;51.448;7.238;2022-10-16T13:58:12;19.60;99.90
1083;DHT22;530;51.448;7.238;2022-10-16T14:00:39;19.50;99.90
1083;DHT22;530;51.448;7.238;2022-10-16T14:03:11;19.50;99.90
1083;DHT22;530;51.448;7.238;2022-10-16T14:05:45;19.30;99.90
1083;DHT22;530;51.448;7.238;2022-10-16T14:08:12;19.40;99.90
1083;DHT22;530;51.448;7.238;2022-10-16T14:10:38;19.30;99.90
1083;DHT22;530;51.448;7.238;2022-10-16T14:13:06;19.30;99.90
1083;DHT22;530;51.448;7.238;2022-10-16T14:15:34;19.30;99.90
1083;DHT22;530;51.448;7.238;2022-10-16T14:18:01;19.40;99.90
1083;DHT22;530;51.448;7.238;2022-10-16T14:20:29;19.30;99.90
1083;DHT22;530;51.448;7.238;2022-10-16T14:23:01;19.30;99.90
1083;DHT22;530;51.448;7.238;2022-10-16T14:25:29;19.40;99.90
1083;DHT22;530;51.448;7.238;2022-10-16T14:28:14;19.50;99.90
1083;DHT22;530;51.448;7.238;2022-10-16T14:30:56;19.60;99.90
1083;DHT22;530;51.448;7.238;2022-10-16T14:36:13;19.50;99.90
1083;DHT22;530;51.448;7.238;2022-10-16T14:38:41;19.40;99.90
1083;DHT22;530;51.448;7.238;2022-10-16T14:41:08;19.30;99.90
1083;DHT22;530;51.448;7.238;2022-10-16T14:43:37;19.20;99.90
1083;DHT22;530;51.448;7.238;2022-10-16T14:46:15;19.10;99.90
1083;DHT22;530;51.448;7.238;2022-10-16T14:48:43;19.10;99.90
1083;DHT22;530;51.448;7.238;2022-10-16T14:51:20;19.10;99.90
1083;DHT22;530;51.448;7.238;2022-10-16T14:53:46;19.10;99.90
1083;DHT22;530;51.448;7.238;2022-10-16T14:56:18;19.00;99.90
1083;DHT22;530;51.448;7.238;2022-10-16T14:58:45;19.00;99.90
1083;DHT22;530;51.448;7.238;2022-10-16T15:01:11;19.00;99.90
1083;DHT22;530;51.448;7.238;2022-10-16T15:03:38;18.90;99.90
1083;DHT22;530;51.448;7.238;2022-10-16T15:06:10;18.90;99.90
1083;DHT22;530;51.448;7.238;2022-10-16T15:08:36;18.90;99.90
1083;DHT22;530;51.448;7.238;2022-10-16T15:11:02;18.80;99.90
1083;DHT22;530;51.448;7.238;2022-10-16T15:13:27;18.80;99.90
1083;DHT22;530;51.448;7.238;2022-10-16T15:15:53;18.70;99.90
1083;DHT22;530;51.448;7.238;2022-10-16T15:18:19;18.70;99.90
1083;DHT22;530;51.448;7.238;2022-10-16T15:20:48;18.60;99.90
1083;DHT22;530;51.448;7.238;2022-10-16T15:23:16;18.50;99.90
1083;DHT22;530;51.448;7.238;2022-10-16T15:25:53;18.30;99.90
1083;DHT22;530;51.448;7.238;2022-10-16T15:28:20;18.30;99.90
1083;DHT22;530;51.448;7.238;2022-10-16T15:30:48;18.20;99.90
1083;DHT22;530;51.448;7.238;2022-10-16T15:33:17;18.20;99.90
1083;DHT22;530;51.448;7.238;2022-10-16T15:35:44;18.10;99.90
1083;DHT22;530;51.448;7.238;2022-10-16T15:38:12;18.10;99.90
1083;DHT22;530;51.448;7.238;2022-10-16T15:40:39;18.10;99.90
1083;DHT22;530;51.448;7.238;2022-10-16T15:43:05;18.00;99.90
1083;DHT22;530;51.448;7.238;2022-10-16T15:45:31;18.00;99.90
1083;DHT22;530;51.448;7.238;2022-10-16T15:47:56;18.00;99.90
1083;DHT22;530;51.448;7.238;2022-10-16T15:50:22;18.00;99.90
1083;DHT22;530;51.448;7.238;2022-10-16T15:52:50;17.90;99.90
1083;DHT22;530;51.448;7.238;2022-10-16T15:55:15;17.90;99.90
1083;DHT22;530;51.448;7.238;2022-10-16T15:57:42;17.90;99.90
1083;DHT22;530;51.448;7.238;2022-10-16T16:00:11;17.90;99.90
1083;DHT22;530;51.448;7.238;2022-10-16T16:02:37;17.90;99.90
1083;DHT22;530;51.448;7.238;2022-10-16T16:05:03;17.90;99.90
1083;DHT22;530;51.448;7.238;2022-10-16T16:07:32;17.90;99.90
1083;DHT22;530;51.448;7.238;2022-10-16T16:09:58;17.90;99.90
1083;DHT22;530;51.448;7.238;2022-10-16T16:12:24;17.80;99.90
1083;DHT22;530;51.448;7.238;2022-10-16T16:14:49;17.80;99.90
1083;DHT22;530;51.448;7.238;2022-10-16T16:17:16;17.90;99.90
1083;DHT22;530;51.448;7.238;2022-10-16T16:19:42;17.80;99.90
1083;DHT22;530;51.448;7.238;2022-10-16T16:22:08;17.80;99.90
1083;DHT22;530;51.448;7.238;2022-10-16T16:24:33;17.80;99.90
1083;DHT22;530;51.448;7.238;2022-10-16T16:26:59;17.70;99.90
1083;DHT22;530;51.448;7.238;2022-10-16T16:29:25;17.70;99.90
1083;DHT22;530;51.448;7.238;2022-10-16T16:31:50;17.60;99.90
1083;DHT22;530;51.448;7.238;2022-10-16T16:34:23;17.60;99.90
1083;DHT22;530;51.448;7.238;2022-10-16T16:36:50;17.60;99.90
1083;DHT22;530;51.448;7.238;2022-10-16T16:39:16;17.60;99.90
1083;DHT22;530;51.448;7.238;2022-10-16T16:41:41;17.70;99.90
1083;DHT22;530;51.448;7.238;2022-10-16T16:44:09;17.70;99.90
1083;DHT22;530;51.448;7.238;2022-10-16T16:46:36;17.70;99.90
1083;DHT22;530;51.448;7.238;2022-10-16T16:49:02;17.60;99.90
1083;DHT22;530;51.448;7.238;2022-10-16T16:51:28;17.60;99.90
1083;DHT22;530;51.448;7.238;2022-10-16T16:53:54;17.60;99.90
1083;DHT22;530;51.448;7.238;2022-10-16T16:56:21;17.60;99.90
1083;DHT22;530;51.448;7.238;2022-10-16T16:58:49;17.50;99.90
1083;DHT22;530;51.448;7.238;2022-10-16T17:01:15;17.50;99.90
1083;DHT22;530;51.448;7.238;2022-10-16T17:03:43;17.40;99.90
1083;DHT22;530;51.448;7.238;2022-10-16T17:06:13;17.20;99.90
1083;DHT22;530;51.448;7.238;2022-10-16T17:08:40;17.20;99.90
1083;DHT22;530;51.448;7.238;2022-10-16T17:11:06;17.20;99.90
1083;DHT22;530;51.448;7.238;2022-10-16T17:13:36;17.10;99.90
1083;DHT22;530;51.448;7.238;2022-10-16T17:16:04;17.10;99.90
1083;DHT22;530;51.448;7.238;2022-10-16T17:18:31;17.00;99.90
1083;DHT22;530;51.448;7.238;2022-10-16T17:21:00;17.00;99.90
1083;DHT22;530;51.448;7.238;2022-10-16T17:23:26;17.00;99.90
1083;DHT22;530;51.448;7.238;2022-10-16T17:25:53;17.00;99.90
1083;DHT22;530;51.448;7.238;2022-10-16T17:28:18;17.10;99.90
1083;DHT22;530;51.448;7.238;2022-10-16T17:30:44;17.10;99.90
1083;DHT22;530;51.448;7.238;2022-10-16T17:33:11;17.10;99.90
1083;DHT22;530;51.448;7.238;2022-10-16T17:35:42;17.00;99.90
1083;DHT22;530;51.448;7.238;2022-10-16T17:38:09;17.10;99.90
1083;DHT22;530;51.448;7.238;2022-10-16T17:40:34;17.10;99.90
1083;DHT22;530;51.448;7.238;2022-10-16T17:43:01;17.10;99.90
1083;DHT22;530;51.448;7.238;2022-10-16T17:45:26;17.10;99.90
1083;DHT22;530;51.448;7.238;2022-10-16T17:47:52;17.10;99.90
1083;DHT22;530;51.448;7.238;2022-10-16T17:50:18;17.10;99.90
1083;DHT22;530;51.448;7.238;2022-10-16T17:52:44;17.10;99.90
1083;DHT22;530;51.448;7.238;2022-10-16T17:55:10;17.20;99.90
1083;DHT22;530;51.448;7.238;2022-10-16T17:57:35;17.20;99.90
1083;DHT22;530;51.448;7.238;2022-10-16T18:00:01;17.20;99.90
1083;DHT22;530;51.448;7.238;2022-10-16T18:02:28;17.30;99.90
1083;DHT22;530;51.448;7.238;2022-10-16T18:04:53;17.40;99.90
1083;DHT22;530;51.448;7.238;2022-10-16T18:07:20;17.40;99.90
1083;DHT22;530;51.448;7.238;2022-10-16T18:09:46;17.40;99.90
1083;DHT22;530;51.448;7.238;2022-10-16T18:12:12;17.40;99.90
1083;DHT22;530;51.448;7.238;2022-10-16T18:14:39;17.40;99.90
1083;DHT22;530;51.448;7.238;2022-10-16T18:17:05;17.40;99.90
1083;DHT22;530;51.448;7.238;2022-10-16T18:19:31;17.30;99.90
1083;DHT22;530;51.448;7.238;2022-10-16T18:21:57;17.30;99.90
1083;DHT22;530;51.448;7.238;2022-10-16T18:24:23;17.20;99.90
1083;DHT22;530;51.448;7.238;2022-10-16T18:26:51;17.20;99.90
1083;DHT22;530;51.448;7.238;2022-10-16T18:29:22;17.20;99.90